createdAt,value
2023-02-17T00:06:36.901Z,9.70
2023-02-17T00:11:33.993Z,9.70
2023-02-17T00:14:02.186Z,9.70
2023-02-17T00:16:31.171Z,9.70
2023-02-17T00:19:01.396Z,9.70
2023-02-17T00:21:32.990Z,9.70
2023-02-17T00:24:02.595Z,9.70
2023-02-17T00:26:30.799Z,9.80
2023-02-17T00:29:00.076Z,9.80
2023-02-17T00:33:59.919Z,10.00
2023-02-17T00:36:30.008Z,10.10
2023-02-17T00:38:59.880Z,10.20
2023-02-17T00:41:30.843Z,10.20
2023-02-17T00:46:28.576Z,10.50
2023-02-17T00:51:26.781Z,10.60
2023-02-17T00:58:53.522Z,10.70
2023-02-17T01:01:21.788Z,10.70
2023-02-17T01:03:50.091Z,10.80
2023-02-17T01:06:25.662Z,10.80
2023-02-17T01:11:25.999Z,10.80
2023-02-17T01:13:56.967Z,10.80
2023-02-17T01:16:28.534Z,10.70
2023-02-17T01:18:59.877Z,10.80
2023-02-17T01:21:30.328Z,10.70
2023-02-17T01:24:02.117Z,10.70
2023-02-17T01:26:34.054Z,10.70
2023-02-17T01:29:06.613Z,10.70
2023-02-17T01:31:35.289Z,10.70
2023-02-17T01:34:06.042Z,10.70
2023-02-17T01:41:31.708Z,10.70
2023-02-17T01:44:15.671Z,10.60
2023-02-17T01:46:46.432Z,10.60
2023-02-17T01:49:28.427Z,10.70
2023-02-17T01:52:04.410Z,10.70
2023-02-17T01:54:41.542Z,10.60
2023-02-17T01:57:12.779Z,10.60
2023-02-17T01:59:43.547Z,10.60
2023-02-17T02:02:12.442Z,10.60
2023-02-17T02:04:46.976Z,10.60
2023-02-17T02:07:21.278Z,10.60
2023-02-17T02:09:54.187Z,10.60
2023-02-17T02:12:25.899Z,10.60
2023-02-17T02:14:59.606Z,10.60
2023-02-17T02:17:37.440Z,10.60
2023-02-17T02:20:36.246Z,10.60
2023-02-17T02:23:37.032Z,10.60
2023-02-17T02:26:39.861Z,10.60
2023-02-17T02:29:47.089Z,10.60
2023-02-17T02:32:55.176Z,10.60
2023-02-17T02:35:29.516Z,10.60
2023-02-17T02:38:06.896Z,10.60
2023-02-17T02:40:42.206Z,10.60
2023-02-17T02:43:11.259Z,10.50
2023-02-17T02:48:09.790Z,10.60
2023-02-17T02:51:17.607Z,10.50
2023-02-17T02:54:15.620Z,10.50
2023-02-17T02:57:02.108Z,10.50
2023-02-17T02:59:45.153Z,10.60
2023-02-17T03:02:24.286Z,10.50
2023-02-17T03:05:02.314Z,10.50
2023-02-17T03:07:36.754Z,10.50
2023-02-17T03:10:06.800Z,10.50
2023-02-17T03:12:38.234Z,10.50
2023-02-17T03:15:15.220Z,10.50
2023-02-17T03:20:15.018Z,10.50
2023-02-17T03:22:46.681Z,10.40
2023-02-17T03:25:17.760Z,10.40
2023-02-17T03:30:16.562Z,10.40
2023-02-17T03:32:44.887Z,10.40
2023-02-17T03:35:14.860Z,10.40
2023-02-17T03:47:38.412Z,10.40
2023-02-17T03:50:08.451Z,10.40
2023-02-17T03:52:38.470Z,10.60
2023-02-17T03:55:07.591Z,10.50
2023-02-17T04:00:05.549Z,10.50
2023-02-17T04:07:42.422Z,10.50
2023-02-17T04:10:11.902Z,10.50
2023-02-17T04:12:40.235Z,10.50
2023-02-17T04:15:09.416Z,10.50
2023-02-17T04:17:38.664Z,10.50
2023-02-17T04:20:09.018Z,10.50
2023-02-17T04:25:07.628Z,10.50
2023-02-17T04:30:04.851Z,10.60
2023-02-17T04:42:28.605Z,10.60
2023-02-17T04:49:53.841Z,10.60
2023-02-17T04:59:49.085Z,10.50
2023-02-17T05:17:11.051Z,10.40
2023-02-17T05:24:38.542Z,10.40
2023-02-17T05:29:35.842Z,10.40
2023-02-17T05:34:34.306Z,10.40
2023-02-17T05:49:25.797Z,10.40
2023-02-17T05:51:55.358Z,10.40
2023-02-17T05:54:23.662Z,10.30
2023-02-17T05:59:21.022Z,10.30
2023-02-17T06:04:19.523Z,10.30
2023-02-17T06:09:17.642Z,10.30
2023-02-17T06:14:14.348Z,10.30
2023-02-17T06:26:40.538Z,10.30
2023-02-17T06:29:09.006Z,10.20
2023-02-17T06:34:07.025Z,10.30
2023-02-17T06:36:35.501Z,10.30
2023-02-17T06:44:02.404Z,10.30
2023-02-17T06:53:57.784Z,10.30
2023-02-17T06:58:54.472Z,10.30
2023-02-17T07:01:26.808Z,10.30
2023-02-17T07:06:25.361Z,10.30
2023-02-17T07:08:54.062Z,10.30
2023-02-17T07:18:49.319Z,10.40
2023-02-17T07:26:16.062Z,10.40
2023-02-17T07:31:15.680Z,10.40
2023-02-17T07:33:45.400Z,10.40
2023-02-17T07:36:17.734Z,10.50
2023-02-17T07:41:17.162Z,10.60
2023-02-17T07:43:46.698Z,10.60
2023-02-17T07:46:18.684Z,10.70
2023-02-17T07:51:20.654Z,10.60
2023-02-17T07:56:21.431Z,10.60
2023-02-17T08:01:21.102Z,10.70
2023-02-17T08:03:50.275Z,10.70
2023-02-17T08:06:22.151Z,10.70
2023-02-17T08:09:09.731Z,10.70
2023-02-17T08:11:56.085Z,10.70
2023-02-17T08:14:27.329Z,10.80
2023-02-17T08:16:55.825Z,10.80
2023-02-17T08:22:00.030Z,10.90
2023-02-17T08:29:25.789Z,10.90
2023-02-17T08:31:54.696Z,10.90
2023-02-17T08:39:21.441Z,10.90
2023-02-17T08:44:20.865Z,10.80
2023-02-17T08:46:51.153Z,10.80
2023-02-17T08:49:22.171Z,10.90
2023-02-17T08:51:51.556Z,10.90
2023-02-17T08:54:21.331Z,10.80
2023-02-17T09:04:16.930Z,10.80
2023-02-17T09:06:48.931Z,10.80
2023-02-17T09:09:20.013Z,10.90
2023-02-17T09:11:50.671Z,10.90
2023-02-17T09:21:44.536Z,10.90
2023-02-17T09:24:13.125Z,10.90
2023-02-17T09:29:11.918Z,11.00
2023-02-17T09:34:08.906Z,11.10
2023-02-17T09:36:42.202Z,11.20
2023-02-17T09:39:13.777Z,11.20
2023-02-17T09:41:47.199Z,11.20
2023-02-17T09:44:23.661Z,11.20
2023-02-17T09:47:02.568Z,11.20
2023-02-17T09:49:39.605Z,11.30
2023-02-17T09:52:14.105Z,11.30
2023-02-17T09:54:54.768Z,11.30
2023-02-17T09:57:28.950Z,11.40
2023-02-17T10:00:05.412Z,11.40
2023-02-17T10:02:48.157Z,11.40
2023-02-17T10:05:22.210Z,11.40
2023-02-17T10:07:56.457Z,11.40
2023-02-17T10:10:32.394Z,11.50
2023-02-17T10:13:03.397Z,11.50
2023-02-17T10:15:40.040Z,11.50
2023-02-17T10:18:17.151Z,11.50
2023-02-17T10:20:53.498Z,11.50
2023-02-17T10:23:24.321Z,11.40
2023-02-17T10:26:13.974Z,11.40
2023-02-17T10:28:53.137Z,11.30
2023-02-17T10:31:37.943Z,11.20
2023-02-17T10:34:14.801Z,11.20
2023-02-17T10:36:56.654Z,11.30
2023-02-17T10:39:45.231Z,11.30
2023-02-17T10:42:22.519Z,11.30
2023-02-17T10:44:53.667Z,11.40
2023-02-17T10:47:23.929Z,11.50
2023-02-17T10:49:55.889Z,11.60
2023-02-17T10:52:33.238Z,11.60
2023-02-17T10:55:20.965Z,11.70
2023-02-17T10:57:56.384Z,11.70
2023-02-17T11:02:56.255Z,11.80
2023-02-17T11:05:28.028Z,11.80
2023-02-17T11:07:58.961Z,11.90
2023-02-17T11:10:30.721Z,11.90
2023-02-17T11:15:32.808Z,12.00
2023-02-17T11:18:10.756Z,12.00
2023-02-17T11:20:39.891Z,12.00
2023-02-17T11:23:24.516Z,12.00
2023-02-17T11:26:03.931Z,11.90
2023-02-17T11:31:02.929Z,12.00
2023-02-17T11:33:35.786Z,12.00
2023-02-17T11:36:06.372Z,12.00
2023-02-17T11:38:44.782Z,12.00
2023-02-17T11:41:14.495Z,12.00
2023-02-17T11:43:54.553Z,12.00
2023-02-17T11:46:41.489Z,12.10
2023-02-17T11:50:04.841Z,12.10
2023-02-17T11:52:54.620Z,12.10
2023-02-17T11:55:30.572Z,12.20
2023-02-17T11:58:20.308Z,12.20
2023-02-17T12:01:01.691Z,12.30
2023-02-17T12:03:53.592Z,12.30
2023-02-17T12:06:34.710Z,12.40
2023-02-17T12:09:17.304Z,12.40
2023-02-17T12:11:59.225Z,12.40
2023-02-17T12:14:54.021Z,12.50
2023-02-17T12:17:36.447Z,12.50
2023-02-17T12:20:19.643Z,12.60
2023-02-17T12:23:10.531Z,12.60
2023-02-17T12:25:43.908Z,12.70
2023-02-17T12:28:36.983Z,11.10
2023-02-17T12:31:20.545Z,12.80
2023-02-17T12:33:59.682Z,12.90
2023-02-17T12:36:33.169Z,12.90
2023-02-17T12:39:12.623Z,13.00
2023-02-17T12:41:46.660Z,13.00
2023-02-17T12:44:19.804Z,13.10
2023-02-17T12:46:52.745Z,13.20
2023-02-17T12:49:26.302Z,13.30
2023-02-17T12:52:00.006Z,13.30
2023-02-17T12:54:36.419Z,13.30
2023-02-17T12:57:15.225Z,13.30
2023-02-17T12:59:46.534Z,13.30
2023-02-17T13:02:17.894Z,13.30
2023-02-17T13:04:52.544Z,13.30
2023-02-17T13:07:39.947Z,13.20
2023-02-17T13:10:28.254Z,13.10
2023-02-17T13:13:01.526Z,13.10
2023-02-17T13:15:35.325Z,13.10
2023-02-17T13:18:07.338Z,13.00
2023-02-17T13:20:55.842Z,13.00
2023-02-17T13:23:42.983Z,12.90
2023-02-17T13:26:29.658Z,12.90
2023-02-17T13:29:34.293Z,12.90
2023-02-17T13:32:06.002Z,12.90
2023-02-17T13:34:37.128Z,12.90
2023-02-17T13:37:26.516Z,12.80
2023-02-17T13:42:41.183Z,12.80
2023-02-17T13:45:22.860Z,12.80
2023-02-17T13:47:54.414Z,12.80
2023-02-17T13:50:33.490Z,12.70
2023-02-17T13:58:01.292Z,12.80
2023-02-17T14:00:32.324Z,12.90
2023-02-17T14:03:17.004Z,12.90
2023-02-17T14:05:47.676Z,12.90
2023-02-17T14:08:20.970Z,12.90
2023-02-17T14:10:49.710Z,12.90
2023-02-17T14:13:19.853Z,12.90
2023-02-17T14:15:55.630Z,12.90
2023-02-17T14:18:34.491Z,12.90
2023-02-17T14:21:09.408Z,12.80
2023-02-17T14:23:47.927Z,12.80
2023-02-17T14:26:30.498Z,12.80
2023-02-17T14:29:03.383Z,12.80
2023-02-17T14:36:37.707Z,12.70
2023-02-17T14:39:09.252Z,12.70
2023-02-17T14:44:07.560Z,12.70
2023-02-17T14:46:36.649Z,12.70
2023-02-17T14:51:37.500Z,12.70
2023-02-17T14:54:14.332Z,12.70
2023-02-17T14:56:47.474Z,12.70
2023-02-17T14:59:17.121Z,12.70
2023-02-17T15:01:45.373Z,12.70
2023-02-17T15:06:44.654Z,12.60
2023-02-17T15:09:16.503Z,12.60
2023-02-17T15:11:48.889Z,12.60
2023-02-17T15:14:21.962Z,12.60
2023-02-17T15:16:50.811Z,12.50
2023-02-17T15:19:19.042Z,12.50
2023-02-17T15:21:50.550Z,12.50
2023-02-17T15:24:26.489Z,12.50
2023-02-17T15:26:57.229Z,12.50
2023-02-17T15:29:28.227Z,12.50
2023-02-17T15:32:00.259Z,12.50
2023-02-17T15:34:31.884Z,12.30
2023-02-17T15:42:06.040Z,12.40
2023-02-17T15:44:43.160Z,12.40
2023-02-17T15:47:16.985Z,12.40
2023-02-17T15:52:15.736Z,12.40
2023-02-17T15:57:22.848Z,12.40
2023-02-17T15:59:55.128Z,12.40
2023-02-17T16:02:25.748Z,12.30
2023-02-17T16:09:51.123Z,12.40
2023-02-17T16:12:26.533Z,12.30
2023-02-17T16:14:57.725Z,12.30
2023-02-17T16:17:26.855Z,12.40
2023-02-17T16:27:21.050Z,12.30
2023-02-17T16:32:19.370Z,12.30
2023-02-17T16:34:48.409Z,12.30
2023-02-17T16:37:18.372Z,12.30
2023-02-17T16:39:47.610Z,12.30
2023-02-17T16:44:44.486Z,12.20
2023-02-17T16:47:22.462Z,12.20
2023-02-17T16:52:26.137Z,12.20
2023-02-17T16:57:23.791Z,12.20
2023-02-17T16:59:52.065Z,12.20
2023-02-17T17:02:22.084Z,12.20
2023-02-17T17:10:14.367Z,12.10
2023-02-17T17:12:36.086Z,12.10
2023-02-17T17:17:40.945Z,12.10
2023-02-17T17:20:16.270Z,12.10
2023-02-17T17:22:46.664Z,12.10
2023-02-17T17:30:19.481Z,12.10
2023-02-17T17:32:49.193Z,12.10
2023-02-17T17:35:18.249Z,12.00
2023-02-17T17:37:46.775Z,11.90
2023-02-17T17:40:20.075Z,11.90
2023-02-17T17:42:48.370Z,11.80
2023-02-17T17:50:19.786Z,11.70
2023-02-17T17:52:48.623Z,11.70
2023-02-17T17:55:17.657Z,11.70
2023-02-17T18:00:19.024Z,11.70
2023-02-17T18:05:17.594Z,11.70
2023-02-17T18:07:51.069Z,11.80
2023-02-17T18:12:49.068Z,11.80
2023-02-17T18:15:18.447Z,11.80
2023-02-17T18:17:48.796Z,11.80
2023-02-17T18:20:18.869Z,11.80
2023-02-17T18:27:47.768Z,11.90
2023-02-17T18:30:19.433Z,11.90
2023-02-17T18:35:19.608Z,11.90
2023-02-17T18:37:48.165Z,12.00
2023-02-17T18:40:20.170Z,12.00
2023-02-17T18:45:18.245Z,12.10
2023-02-17T18:50:18.167Z,12.10
2023-02-17T19:00:16.608Z,12.20
2023-02-17T19:02:45.076Z,12.20
2023-02-17T19:07:44.357Z,12.30
2023-02-17T19:10:14.098Z,12.30
2023-02-17T19:12:43.034Z,12.30
2023-02-17T19:20:12.162Z,12.30
2023-02-17T19:22:40.605Z,12.30
2023-02-17T19:25:10.730Z,12.40
2023-02-17T19:27:41.083Z,12.40
2023-02-17T19:30:11.988Z,12.40
2023-02-17T19:35:11.679Z,12.40
2023-02-17T19:40:11.334Z,12.30
2023-02-17T19:47:37.722Z,12.40
2023-02-17T19:50:07.679Z,12.40
2023-02-17T19:52:38.261Z,12.40
2023-02-17T19:57:38.139Z,12.40
2023-02-17T20:00:09.658Z,12.40
2023-02-17T20:10:05.966Z,12.30
2023-02-17T20:15:04.399Z,12.50
2023-02-17T20:32:25.888Z,12.50
2023-02-17T20:39:51.484Z,12.50
2023-02-17T20:44:50.304Z,12.50
2023-02-17T20:49:48.820Z,12.40
2023-02-17T20:52:17.228Z,12.40
2023-02-17T20:57:15.939Z,12.40
2023-02-17T20:59:44.276Z,12.40
2023-02-17T21:07:12.295Z,12.40
2023-02-17T21:12:09.191Z,12.40
2023-02-17T21:24:33.182Z,12.50
2023-02-17T21:36:55.835Z,12.40
2023-02-17T21:41:53.920Z,12.40
2023-02-17T21:44:39.630Z,12.40
2023-02-17T21:47:07.905Z,12.40
2023-02-17T21:49:36.191Z,12.30
2023-02-17T21:57:04.448Z,12.40
2023-02-17T21:59:32.938Z,12.40
2023-02-17T22:06:58.458Z,12.30
2023-02-17T22:11:55.572Z,12.30
2023-02-17T22:14:25.237Z,12.30
2023-02-17T22:19:24.823Z,12.30
2023-02-17T22:24:22.620Z,12.30
2023-02-17T22:26:51.168Z,12.30
2023-02-17T22:31:55.597Z,12.30
2023-02-17T22:34:26.090Z,12.30
2023-02-17T22:44:19.990Z,12.30
2023-02-17T22:46:49.710Z,12.40
2023-02-17T23:04:14.426Z,12.30
2023-02-17T23:09:17.031Z,10.30
2023-02-17T23:11:53.716Z,12.30
2023-02-17T23:14:26.133Z,12.40
2023-02-17T23:16:58.292Z,12.30
2023-02-17T23:19:28.535Z,12.40
2023-02-17T23:21:59.866Z,12.40
2023-02-17T23:24:29.492Z,12.40
2023-02-17T23:27:00.214Z,12.40
2023-02-17T23:29:31.469Z,12.40
2023-02-17T23:32:00.577Z,12.40
2023-02-17T23:34:30.497Z,12.40
2023-02-17T23:41:56.335Z,12.40
2023-02-17T23:46:53.185Z,12.40
2023-02-17T23:49:21.414Z,12.30
2023-02-17T23:51:51.164Z,12.40
2023-02-17T23:54:19.458Z,12.40
